Time;durP1;ratioP1;P1;durP2;ratioP2;P2;SDS_P1;SDS_P2;PMS_P1;PMS_P2;Temp;Humidity;BMP_temperature;BMP_pressure;BME280_temperature;BME280_humidity;BME280_pressure;Samples;Min_cycle;Max_cycle;Signal;HPM_P1;HPM_P2
2021/04/15 00:00:28;;;;;;;18.67;16.13;;;1.30;99.90;;;;;;4997353;28;20443;-78
2021/04/15 00:02:55;;;;;;;17.20;15.40;;;1.20;99.90;;;;;;4997032;28;20987;-78
2021/04/15 00:05:26;;;;;;;18.40;15.07;;;1.20;99.90;;;;;;4996795;28;20953;-78
2021/04/15 00:07:52;;;;;;;17.63;15.60;;;1.20;99.90;;;;;;4995834;28;20456;-78
2021/04/15 00:10:20;;;;;;;15.67;14.07;;;1.20;99.90;;;;;;4987997;28;20561;-78
2021/04/15 00:12:46;;;;;;;15.83;14.40;;;1.20;99.90;;;;;;4995463;28;20476;-77
2021/04/15 00:15:15;;;;;;;15.63;14.07;;;1.20;99.90;;;;;;4995730;28;20465;-78
2021/04/15 00:17:41;;;;;;;15.57;13.97;;;1.20;99.90;;;;;;4989873;28;20457;-78
2021/04/15 00:20:09;;;;;;;15.57;13.97;;;1.20;99.90;;;;;;4989934;28;20483;-78
2021/04/15 00:22:35;;;;;;;16.63;14.73;;;1.20;99.90;;;;;;4995636;28;20473;-78
2021/04/15 00:25:03;;;;;;;17.70;15.87;;;1.20;99.90;;;;;;4995945;28;20445;-78
2021/04/15 00:27:30;;;;;;;17.37;15.57;;;1.20;99.90;;;;;;4986967;28;20472;-78
2021/04/15 00:29:56;;;;;;;17.23;14.43;;;1.20;99.90;;;;;;4995968;28;20476;-78
2021/04/15 00:32:23;;;;;;;17.33;15.63;;;1.20;99.90;;;;;;5023584;23;20496;-77
2021/04/15 00:34:49;;;;;;;18.80;16.13;;;1.20;99.90;;;;;;5011637;28;20452;-77
2021/04/15 00:37:15;;;;;;;20.67;15.90;;;1.30;99.90;;;;;;5012681;28;20428;-77
2021/04/15 00:39:41;;;;;;;18.03;15.13;;;1.40;99.90;;;;;;5013121;28;20458;-76
2021/04/15 00:42:08;;;;;;;16.57;14.83;;;1.40;99.90;;;;;;5011725;28;20526;-76
2021/04/15 00:44:35;;;;;;;15.47;13.90;;;1.50;99.90;;;;;;5007624;28;20502;-76
2021/04/15 00:47:04;;;;;;;16.20;14.53;;;1.50;99.90;;;;;;5005419;28;20485;-77
2021/04/15 00:49:34;;;;;;;15.40;13.73;;;1.50;99.90;;;;;;5011921;28;20490;-77
2021/04/15 00:52:04;;;;;;;16.67;14.87;;;1.50;99.90;;;;;;4997168;28;20467;-76
2021/04/15 00:54:36;;;;;;;17.23;15.47;;;1.50;99.90;;;;;;5012278;28;20448;-77
2021/04/15 00:57:07;;;;;;;17.67;15.90;;;1.50;99.90;;;;;;5001977;28;20467;-77
2021/04/15 00:59:35;;;;;;;17.83;15.93;;;1.60;99.90;;;;;;5009583;28;20437;-77
2021/04/15 01:02:02;;;;;;;15.87;14.47;;;1.60;99.90;;;;;;5008931;28;20463;-77
2021/04/15 01:04:28;;;;;;;17.07;15.37;;;1.50;99.90;;;;;;5005058;28;20447;-75
2021/04/15 01:06:54;;;;;;;17.57;15.73;;;1.40;99.90;;;;;;5004899;28;20539;-77
2021/04/15 01:09:23;;;;;;;15.23;13.70;;;1.40;99.90;;;;;;5006460;28;20436;-77
2021/04/15 01:12:00;;;;;;;15.23;13.73;;;1.30;99.90;;;;;;5007974;28;20441;-77
2021/04/15 01:14:44;;;;;;;16.30;14.70;;;1.30;99.90;;;;;;5005663;28;20455;-76
2021/04/15 01:17:21;;;;;;;17.57;15.93;;;1.30;99.90;;;;;;5016627;28;20470;-80
2021/04/15 01:20:20;;;;;;;16.43;14.93;;;1.20;99.90;;;;;;5011898;28;20866;-76
2021/04/15 01:23:01;;;;;;;16.13;14.60;;;1.10;99.90;;;;;;5015001;28;20468;-79
2021/04/15 01:25:38;;;;;;;16.63;15.10;;;1.10;99.90;;;;;;5014596;28;20885;-79
2021/04/15 01:28:11;;;;;;;16.53;14.67;;;1.10;99.90;;;;;;5010987;28;20442;-79
2021/04/15 01:30:41;;;;;;;16.23;14.13;;;1.00;99.90;;;;;;5008260;28;20451;-77
2021/04/15 01:33:15;;;;;;;17.43;15.53;;;0.90;99.90;;;;;;5003260;28;20483;-76
2021/04/15 01:35:46;;;;;;;19.43;16.00;;;0.90;99.90;;;;;;5009042;28;20452;-76
2021/04/15 01:38:21;;;;;;;18.70;15.83;;;0.90;99.90;;;;;;5008882;28;20452;-76
2021/04/15 01:40:52;;;;;;;16.07;14.40;;;0.90;99.90;;;;;;5011065;28;20467;-79
2021/04/15 01:43:22;;;;;;;16.33;14.67;;;0.90;99.90;;;;;;5008489;28;20456;-76
2021/04/15 01:45:53;;;;;;;17.43;14.83;;;0.80;99.90;;;;;;5009550;28;20463;-77
2021/04/15 01:48:22;;;;;;;16.30;14.60;;;0.70;99.90;;;;;;5013418;28;20439;-76
2021/04/15 01:50:55;;;;;;;15.87;14.17;;;0.70;99.90;;;;;;5004460;28;20448;-77
2021/04/15 01:53:26;;;;;;;19.33;15.63;;;0.60;99.90;;;;;;5009350;28;20468;-77
2021/04/15 01:56:00;;;;;;;15.93;14.23;;;0.50;99.90;;;;;;5008740;28;20456;-76
2021/04/15 01:58:31;;;;;;;16.67;14.80;;;0.50;99.90;;;;;;5005591;28;20459;-76
2021/04/15 02:01:06;;;;;;;16.90;14.23;;;0.50;99.90;;;;;;5009089;28;20436;-75
2021/04/15 02:03:35;;;;;;;16.87;14.10;;;0.50;99.90;;;;;;5009704;28;20451;-75
2021/04/15 02:06:05;;;;;;;15.23;13.57;;;0.50;99.90;;;;;;5004041;28;20479;-77
2021/04/15 02:08:34;;;;;;;16.77;14.93;;;0.50;99.90;;;;;;5007951;28;20436;-78
2021/04/15 02:11:05;;;;;;;16.60;14.90;;;0.50;99.90;;;;;;4998374;28;20456;-79
2021/04/15 02:13:34;;;;;;;17.13;15.43;;;0.50;99.90;;;;;;5014845;28;20455;-78
2021/04/15 02:16:06;;;;;;;19.30;17.30;;;0.40;99.90;;;;;;4998782;28;20793;-77
2021/04/15 02:18:38;;;;;;;17.00;15.20;;;0.40;99.90;;;;;;5009644;28;20459;-76
2021/04/15 02:21:08;;;;;;;17.67;15.97;;;0.40;99.90;;;;;;5007182;28;20451;-76
2021/04/15 02:23:40;;;;;;;17.53;15.67;;;0.30;99.90;;;;;;5007246;28;20471;-76
2021/04/15 02:26:11;;;;;;;16.80;15.17;;;0.20;99.90;;;;;;5004674;28;20954;-76
2021/04/15 02:28:47;;;;;;;17.77;15.93;;;0.10;99.90;;;;;;5007608;28;20436;-80
2021/04/15 02:31:20;;;;;;;15.87;14.37;;;0.10;99.90;;;;;;5007140;28;20454;-79
2021/04/15 02:33:49;;;;;;;17.63;15.83;;;0.00;99.90;;;;;;5005730;28;21009;-80
2021/04/15 02:36:17;;;;;;;19.47;17.33;;;0.00;99.90;;;;;;5007072;28;20507;-76
2021/04/15 02:38:50;;;;;;;17.60;15.77;;;0.10;99.90;;;;;;5008223;28;20941;-79
2021/04/15 02:41:20;;;;;;;19.03;17.13;;;0.00;99.90;;;;;;5016092;28;20444;-79
2021/04/15 02:43:53;;;;;;;18.83;17.00;;;0.10;99.90;;;;;;5014157;28;20444;-76
2021/04/15 02:46:25;;;;;;;18.67;16.97;;;0.00;99.90;;;;;;5011497;28;20469;-76
2021/04/15 02:48:54;;;;;;;19.90;17.80;;;-0.10;99.90;;;;;;5016387;28;20830;-76
2021/04/15 02:51:26;;;;;;;19.73;17.83;;;-0.10;99.90;;;;;;5038908;28;20450;-78
2021/04/15 02:54:00;;;;;;;22.13;18.77;;;-0.10;99.90;;;;;;5013535;28;20465;-79
2021/04/15 02:56:31;;;;;;;23.10;19.27;;;-0.10;99.90;;;;;;5015005;28;21125;-78
2021/04/15 02:59:03;;;;;;;21.63;19.43;;;-0.10;99.90;;;;;;5008721;28;20446;-77
2021/04/15 03:01:36;;;;;;;20.13;18.03;;;0.00;99.90;;;;;;5000614;28;20451;-78
2021/04/15 03:04:06;;;;;;;19.93;17.93;;;0.00;99.90;;;;;;5013146;28;20458;-80
2021/04/15 03:06:35;;;;;;;21.10;19.10;;;0.00;99.90;;;;;;5026438;28;20464;-77
2021/04/15 03:09:05;;;;;;;19.77;17.87;;;-0.10;99.90;;;;;;5011676;28;20526;-79
2021/04/15 03:11:36;;;;;;;23.20;20.80;;;-0.10;99.90;;;;;;5017175;28;20435;-81
2021/04/15 03:14:09;;;;;;;21.20;19.00;;;-0.10;99.90;;;;;;5011889;28;20463;-79
2021/04/15 03:16:40;;;;;;;20.90;18.73;;;0.00;99.90;;;;;;5018249;28;20435;-75
2021/04/15 03:19:18;;;;;;;21.23;19.07;;;-0.10;99.90;;;;;;5014047;28;20432;-79
2021/04/15 03:21:49;;;;;;;20.60;18.50;;;-0.10;99.90;;;;;;5012946;28;20437;-79
2021/04/15 03:24:22;;;;;;;20.17;18.27;;;-0.10;99.90;;;;;;5021408;28;20463;-78
2021/04/15 03:26:54;;;;;;;20.87;18.77;;;-0.20;99.90;;;;;;5006808;28;20472;-77
2021/04/15 03:29:24;;;;;;;21.83;19.17;;;-0.30;99.90;;;;;;5009264;28;20807;-77
2021/04/15 03:32:13;;;;;;;20.67;18.60;;;-0.30;99.90;;;;;;5016209;28;20450;-79
2021/04/15 03:34:47;;;;;;;21.53;19.27;;;-0.20;99.90;;;;;;5011191;28;20463;-78
2021/04/15 03:37:18;;;;;;;20.63;18.50;;;-0.20;99.90;;;;;;5011823;28;20447;-80
2021/04/15 03:39:46;;;;;;;21.43;19.43;;;-0.30;99.90;;;;;;5011192;28;20454;-81
2021/04/15 03:42:21;;;;;;;22.40;20.13;;;-0.30;99.90;;;;;;5010822;28;20474;-79
2021/04/15 03:44:51;;;;;;;20.43;18.23;;;-0.20;99.90;;;;;;5011015;28;20440;-77
2021/04/15 03:47:23;;;;;;;20.70;18.70;;;-0.30;99.90;;;;;;5007998;28;21008;-77
2021/04/15 03:49:56;;;;;;;23.97;19.43;;;-0.20;99.90;;;;;;5009639;28;20425;-77
2021/04/15 03:52:26;;;;;;;20.57;18.50;;;-0.30;99.90;;;;;;5016657;28;20470;-79
2021/04/15 03:55:11;;;;;;;21.23;19.03;;;-0.40;99.90;;;;;;5015866;28;20451;-79
2021/04/15 03:57:41;;;;;;;21.27;18.97;;;-0.40;99.90;;;;;;5013375;28;20494;-77
2021/04/15 04:00:12;;;;;;;22.50;20.33;;;-0.50;99.90;;;;;;5015015;28;20432;-79
2021/04/15 04:02:43;;;;;;;22.10;19.87;;;-0.40;99.90;;;;;;5013493;28;20467;-78
2021/04/15 04:05:13;;;;;;;21.27;18.90;;;-0.40;99.90;;;;;;5010227;28;20428;-78
2021/04/15 04:07:43;;;;;;;23.37;19.47;;;-0.50;99.90;;;;;;5007356;28;20480;-78
2021/04/15 04:10:15;;;;;;;21.13;19.03;;;-0.50;99.90;;;;;;5022659;28;20468;-79
2021/04/15 04:12:45;;;;;;;23.13;19.83;;;-0.40;99.90;;;;;;5023493;28;20479;-80
2021/04/15 04:15:14;;;;;;;21.70;19.53;;;-0.50;99.90;;;;;;5017610;28;20436;-78
2021/04/15 04:17:46;;;;;;;22.73;20.20;;;-0.50;99.90;;;;;;5018233;28;20431;-78
2021/04/15 04:20:13;;;;;;;22.30;19.87;;;-0.50;99.90;;;;;;5016129;28;20440;-80
2021/04/15 04:22:48;;;;;;;20.67;18.50;;;-0.50;99.90;;;;;;5011754;28;21046;-77
2021/04/15 04:25:22;;;;;;;21.50;19.37;;;-0.60;99.90;;;;;;5013284;28;20447;-80
2021/04/15 04:27:53;;;;;;;20.93;18.83;;;-0.60;99.90;;;;;;5013674;28;20468;-79
2021/04/15 04:30:23;;;;;;;19.90;17.80;;;-0.70;99.90;;;;;;5012790;28;20929;-77
2021/04/15 04:32:56;;;;;;;21.50;19.20;;;-0.70;99.90;;;;;;5010900;28;20502;-76
2021/04/15 04:35:28;;;;;;;21.37;18.90;;;-0.60;99.90;;;;;;5008742;28;20428;-77
2021/04/15 04:37:57;;;;;;;21.33;19.13;;;-0.50;99.90;;;;;;5009102;28;20452;-77
2021/04/15 04:40:28;;;;;;;22.90;19.47;;;-0.50;99.90;;;;;;5014267;28;20456;-79
2021/04/15 04:42:58;;;;;;;21.40;19.17;;;-0.40;99.90;;;;;;5014854;28;20510;-79
2021/04/15 04:45:25;;;;;;;21.93;19.57;;;-0.40;99.90;;;;;;5014618;28;20458;-80
2021/04/15 04:47:58;;;;;;;20.97;18.87;;;-0.50;99.90;;;;;;5014295;28;20487;-77
2021/04/15 04:50:33;;;;;;;19.77;17.73;;;-0.50;99.90;;;;;;5013887;28;20461;-79
2021/04/15 04:53:01;;;;;;;21.47;18.37;;;-0.60;99.90;;;;;;5017786;28;20466;-80
2021/04/15 04:55:33;;;;;;;22.03;18.90;;;-0.50;99.90;;;;;;5013346;28;20968;-76
2021/04/15 04:58:00;;;;;;;20.63;18.50;;;-0.50;99.90;;;;;;5005669;28;20976;-79
2021/04/15 05:00:28;;;;;;;21.93;19.10;;;-0.40;99.90;;;;;;5008730;28;20448;-79
2021/04/15 05:02:56;;;;;;;23.77;19.23;;;-0.40;99.90;;;;;;5009112;28;20466;-79
2021/04/15 05:05:25;;;;;;;22.00;19.80;;;-0.30;99.90;;;;;;5009310;28;20480;-78
2021/04/15 05:07:58;;;;;;;23.10;20.63;;;-0.20;99.90;;;;;;5013644;28;20478;-79
2021/04/15 05:10:28;;;;;;;23.13;19.50;;;-0.10;99.90;;;;;;5010736;28;20443;-78
2021/04/15 05:13:05;;;;;;;23.97;19.57;;;0.00;99.90;;;;;;5005805;28;20490;-79
2021/04/15 05:15:31;;;;;;;24.17;19.17;;;0.10;99.90;;;;;;5006382;28;20447;-79
2021/04/15 05:17:59;;;;;;;24.57;21.23;;;0.10;99.90;;;;;;5006463;28;20443;-78
2021/04/15 05:20:27;;;;;;;23.23;20.77;;;0.20;99.90;;;;;;5010661;28;20447;-79
2021/04/15 05:22:57;;;;;;;27.40;20.37;;;0.30;99.90;;;;;;5010023;28;20503;-79
2021/04/15 05:25:31;;;;;;;22.20;19.90;;;0.30;99.90;;;;;;5011064;28;20875;-78
2021/04/15 05:27:58;;;;;;;22.10;19.17;;;0.40;99.90;;;;;;5014294;28;21003;-79
2021/04/15 05:30:37;;;;;;;21.77;19.47;;;0.40;99.90;;;;;;5009869;28;20497;-78
2021/04/15 05:33:06;;;;;;;26.67;20.20;;;0.50;99.90;;;;;;5007113;28;20475;-78
2021/04/15 05:35:37;;;;;;;21.37;19.07;;;0.60;99.90;;;;;;5007237;28;20991;-79
2021/04/15 05:38:08;;;;;;;20.57;18.43;;;0.70;99.90;;;;;;5000423;28;20551;-78
2021/04/15 05:40:35;;;;;;;20.87;18.87;;;0.70;99.90;;;;;;5006534;28;20576;-79
2021/04/15 05:43:16;;;;;;;20.67;18.47;;;0.80;99.90;;;;;;5009243;28;20554;-78
2021/04/15 05:45:45;;;;;;;20.50;18.40;;;0.90;99.90;;;;;;5006756;28;20467;-78
2021/04/15 05:48:14;;;;;;;21.30;19.20;;;1.00;99.90;;;;;;5011894;28;20894;-80
2021/04/15 05:50:44;;;;;;;20.63;18.47;;;1.00;99.90;;;;;;5011340;28;20447;-78
2021/04/15 05:53:15;;;;;;;22.80;18.53;;;1.10;99.90;;;;;;5008251;28;20464;-78
2021/04/15 05:55:46;;;;;;;20.80;18.50;;;1.20;99.90;;;;;;5007778;28;20451;-78
2021/04/15 05:58:20;;;;;;;18.93;17.23;;;1.40;99.90;;;;;;5008985;28;20498;-78
2021/04/15 06:00:49;;;;;;;18.00;15.50;;;1.60;99.90;;;;;;5008136;28;20494;-79
2021/04/15 06:03:24;;;;;;;19.07;15.33;;;1.80;99.90;;;;;;5010314;28;20461;-78
2021/04/15 06:06:01;;;;;;;19.80;17.53;;;1.90;99.90;;;;;;5010705;28;20806;-79
2021/04/15 06:08:30;;;;;;;20.90;18.90;;;2.20;99.90;;;;;;5006672;28;20456;-79
2021/04/15 06:11:05;;;;;;;19.50;17.57;;;2.40;99.90;;;;;;5014335;28;20438;-78
2021/04/15 06:13:41;;;;;;;17.40;12.77;;;2.70;99.90;;;;;;5010781;28;20469;-79
2021/04/15 06:16:16;;;;;;;14.83;12.30;;;3.00;99.90;;;;;;5006809;28;20446;-79
2021/04/15 06:18:47;;;;;;;18.13;14.20;;;3.20;99.90;;;;;;5009161;28;20498;-78
2021/04/15 06:21:18;;;;;;;16.40;13.93;;;3.20;99.90;;;;;;5007413;28;20459;-78
2021/04/15 06:23:50;;;;;;;16.67;14.47;;;3.20;99.90;;;;;;5009328;28;20529;-79
2021/04/15 06:26:26;;;;;;;17.60;14.83;;;3.10;99.90;;;;;;5014066;28;20479;-79
2021/04/15 06:28:55;;;;;;;17.63;15.17;;;3.10;99.90;;;;;;5016262;28;20453;-78
2021/04/15 06:31:24;;;;;;;17.97;14.10;;;3.10;99.90;;;;;;5010459;28;20502;-78
2021/04/15 06:33:56;;;;;;;17.83;15.47;;;3.20;99.90;;;;;;5058376;23;21010;-75
2021/04/15 06:36:30;;;;;;;17.80;15.40;;;3.20;99.90;;;;;;5044872;28;20438;-76
2021/04/15 06:39:01;;;;;;;18.00;15.60;;;3.40;99.90;;;;;;5040736;28;20716;-75
2021/04/15 06:41:47;;;;;;;16.73;13.17;;;3.70;99.90;;;;;;5041112;28;20442;-75
2021/04/15 06:44:50;;;;;;;16.17;14.33;;;3.90;99.90;;;;;;5032824;28;20467;-75
2021/04/15 06:47:49;;;;;;;15.20;12.17;;;4.20;99.90;;;;;;5036343;28;20470;-75
2021/04/15 06:50:30;;;;;;;15.90;12.53;;;4.50;99.90;;;;;;5032429;28;20436;-77
2021/04/15 06:53:19;;;;;;;15.97;12.67;;;4.70;99.90;;;;;;5041242;28;20461;-76
2021/04/15 06:56:02;;;;;;;22.27;13.73;;;4.90;99.90;;;;;;5037372;28;20468;-75
2021/04/15 06:58:47;;;;;;;19.33;14.70;;;5.10;99.90;;;;;;5036739;28;20292;-76
2021/04/15 07:01:23;;;;;;;20.17;14.43;;;5.30;99.90;;;;;;5033090;28;20192;-76
2021/04/15 07:04:08;;;;;;;15.77;13.17;;;5.20;99.90;;;;;;5041833;28;20219;-76
2021/04/15 07:06:45;;;;;;;17.53;15.17;;;5.20;99.90;;;;;;5045671;28;20407;-76
2021/04/15 07:09:35;;;;;;;18.73;14.13;;;5.30;99.90;;;;;;5034495;28;20197;-74
2021/04/15 07:12:16;;;;;;;19.60;13.43;;;5.30;99.90;;;;;;5041733;28;20200;-76
2021/04/15 07:15:01;;;;;;;16.00;13.80;;;5.40;99.90;;;;;;5040855;28;20203;-76
2021/04/15 07:17:50;;;;;;;17.87;13.23;;;5.30;99.90;;;;;;5037314;28;20193;-77
2021/04/15 07:20:41;;;;;;;16.80;13.13;;;5.40;99.90;;;;;;5035784;28;20216;-76
2021/04/15 07:24:08;;;;;;;18.50;16.57;;;6.00;99.90;;;;;;5031743;28;20220;-76
2021/04/15 07:26:59;;;;;;;16.47;13.77;;;6.20;99.90;;;;;;4961536;28;20229;-76
2021/04/15 07:29:50;;;;;;;17.60;15.77;;;6.10;99.90;;;;;;5032434;28;20272;-76
2021/04/15 07:33:16;;;;;;;16.63;15.03;;;6.20;99.90;;;;;;5035591;28;20204;-76
2021/04/15 07:36:19;;;;;;;16.60;14.33;;;6.20;99.90;;;;;;5031738;28;20199;-76
2021/04/15 07:39:02;;;;;;;18.63;16.27;;;6.50;99.90;;;;;;5039442;28;20287;-77
2021/04/15 07:41:43;;;;;;;17.37;15.77;;;6.50;99.90;;;;;;5041324;28;20218;-76
2021/04/15 07:44:37;;;;;;;18.27;16.37;;;6.50;99.90;;;;;;5028660;28;20219;-76
2021/04/15 07:47:31;;;;;;;19.73;17.70;;;6.10;99.90;;;;;;5026289;28;20215;-76
2021/04/15 07:50:25;;;;;;;20.17;16.30;;;5.70;99.90;;;;;;5024298;28;20206;-76
2021/04/15 07:53:24;;;;;;;18.63;16.77;;;5.80;99.90;;;;;;5031849;28;20212;-76
2021/04/15 07:56:39;;;;;;;18.93;16.93;;;6.20;99.90;;;;;;5030130;28;20193;-76
2021/04/15 07:59:26;;;;;;;17.70;15.90;;;6.70;99.90;;;;;;5029377;28;20200;-76
2021/04/15 08:02:14;;;;;;;18.80;17.10;;;7.40;99.90;;;;;;5035541;28;20209;-76
2021/04/15 08:05:22;;;;;;;19.40;17.47;;;7.20;99.90;;;;;;5041226;28;20210;-77
2021/04/15 08:08:34;;;;;;;19.30;17.37;;;7.90;99.90;;;;;;5041325;28;20219;-77
2021/04/15 08:11:39;;;;;;;16.80;15.13;;;8.00;99.90;;;;;;5030419;28;20199;-77
2021/04/15 08:14:30;;;;;;;16.87;15.37;;;8.50;99.90;;;;;;5037070;28;20215;-77
2021/04/15 08:17:07;;;;;;;17.50;15.70;;;8.70;99.90;;;;;;5033611;28;20206;-77
2021/04/15 08:19:50;;;;;;;16.93;15.53;;;8.60;99.90;;;;;;5031928;28;20196;-77
2021/04/15 08:22:25;;;;;;;16.67;15.17;;;8.90;99.90;;;;;;5034722;28;20215;-77
2021/04/15 08:25:02;;;;;;;16.53;15.13;;;9.20;99.90;;;;;;5038860;28;20566;-77
2021/04/15 08:27:54;;;;;;;16.83;15.23;;;9.20;99.90;;;;;;5038053;28;20211;-77
2021/04/15 08:30:42;;;;;;;18.73;16.83;;;9.00;99.90;;;;;;5036647;28;20195;-77
2021/04/15 08:33:25;;;;;;;18.07;16.27;;;9.10;99.90;;;;;;5033123;28;20234;-75
2021/04/15 08:36:14;;;;;;;16.33;14.83;;;8.90;99.90;;;;;;5043128;28;20220;-76
2021/04/15 08:38:55;;;;;;;16.37;14.77;;;9.30;99.90;;;;;;5040162;28;20211;-76
2021/04/15 08:41:36;;;;;;;17.27;15.77;;;9.70;99.90;;;;;;5036609;28;20191;-77
2021/04/15 08:44:22;;;;;;;15.93;14.53;;;9.40;99.90;;;;;;5033822;28;20306;-77
2021/04/15 08:46:55;;;;;;;15.10;13.80;;;9.80;99.90;;;;;;5036371;28;20210;-76
2021/04/15 08:49:32;;;;;;;16.37;14.90;;;9.80;99.90;;;;;;5035018;28;20191;-77
2021/04/15 08:52:22;;;;;;;13.83;12.73;;;10.40;99.90;;;;;;5020678;28;20221;-76
2021/04/15 08:55:00;;;;;;;14.40;13.20;;;10.20;99.90;;;;;;5027793;28;20204;-77
2021/04/15 08:57:37;;;;;;;14.60;13.20;;;10.50;99.90;;;;;;5039401;28;20260;-76
2021/04/15 09:00:14;;;;;;;13.73;12.63;;;10.70;99.90;;;;;;5029558;28;20605;-76
2021/04/15 09:02:50;;;;;;;13.23;12.13;;;10.70;99.90;;;;;;5034910;28;20216;-77
2021/04/15 09:05:26;;;;;;;13.90;12.50;;;11.00;99.90;;;;;;5035223;28;20258;-77
2021/04/15 09:08:08;;;;;;;13.53;12.33;;;11.00;99.90;;;;;;5039908;28;20215;-77
2021/04/15 09:10:42;;;;;;;13.37;12.17;;;11.00;99.90;;;;;;5036560;28;20196;-76
2021/04/15 09:13:19;;;;;;;12.70;11.53;;;10.60;99.90;;;;;;5032484;28;20246;-76
2021/04/15 09:16:06;;;;;;;12.13;11.10;;;10.60;99.90;;;;;;5039485;28;20215;-77
2021/04/15 09:18:37;;;;;;;12.10;11.03;;;10.80;99.90;;;;;;5037410;28;20188;-77
2021/04/15 09:21:31;;;;;;;12.40;11.30;;;10.90;99.90;;;;;;5035485;28;20206;-77
2021/04/15 09:24:14;;;;;;;11.40;10.50;;;10.90;99.90;;;;;;5039808;28;20228;-77
2021/04/15 09:27:27;;;;;;;10.70;9.80;;;10.80;99.90;;;;;;5043925;28;20274;-77
2021/04/15 09:30:05;;;;;;;11.27;10.27;;;11.10;99.90;;;;;;5037672;28;20207;-77
2021/04/15 09:32:42;;;;;;;10.90;10.00;;;11.30;99.90;;;;;;5027894;28;20704;-76
2021/04/15 09:35:18;;;;;;;10.93;9.83;;;11.20;99.90;;;;;;5028186;28;20192;-77
2021/04/15 09:38:31;;;;;;;11.10;10.00;;;11.30;99.90;;;;;;5037042;28;20673;-77
2021/04/15 09:41:15;;;;;;;13.17;10.10;;;11.30;99.40;;;;;;4976036;28;20300;-77
2021/04/15 09:44:06;;;;;;;11.17;10.07;;;10.80;99.70;;;;;;5031398;28;20228;-77
2021/04/15 09:46:46;;;;;;;10.70;9.70;;;11.10;99.90;;;;;;5029924;28;20217;-77
2021/04/15 09:49:26;;;;;;;10.23;9.33;;;11.20;99.10;;;;;;5037451;28;20200;-77
2021/04/15 09:52:27;;;;;;;9.97;9.07;;;11.50;97.90;;;;;;5038341;28;20210;-77
2021/04/15 09:55:02;;;;;;;10.33;9.47;;;11.60;97.40;;;;;;5040109;28;20254;-77
2021/04/15 09:57:45;;;;;;;10.67;9.67;;;11.20;97.90;;;;;;5034968;28;20211;-77
2021/04/15 10:00:28;;;;;;;11.07;9.57;;;10.90;97.20;;;;;;5032913;28;20196;-77
2021/04/15 10:03:21;;;;;;;10.57;9.57;;;10.90;97.10;;;;;;5041151;28;20277;-77
2021/04/15 10:06:03;;;;;;;10.23;9.30;;;10.90;96.70;;;;;;5032999;28;20302;-77
2021/04/15 10:08:42;;;;;;;10.03;9.23;;;10.70;97.70;;;;;;5039365;28;20646;-77
2021/04/15 10:11:25;;;;;;;9.93;8.93;;;10.40;98.60;;;;;;5033567;28;20207;-76
2021/04/15 10:14:13;;;;;;;9.60;8.80;;;10.30;98.00;;;;;;5041014;28;20233;-76
2021/04/15 10:16:45;;;;;;;10.20;9.30;;;10.30;98.20;;;;;;5037452;28;20663;-78
2021/04/15 10:19:50;;;;;;;9.33;8.53;;;9.80;98.40;;;;;;5033106;28;20195;-76
2021/04/15 10:22:27;;;;;;;9.87;9.10;;;10.20;98.80;;;;;;5025871;28;20201;-77
2021/04/15 10:25:01;;;;;;;11.57;9.63;;;10.00;98.20;;;;;;5028492;28;20256;-76
2021/04/15 10:28:05;;;;;;;10.47;9.47;;;9.90;98.70;;;;;;5027721;28;20235;-76
2021/04/15 10:31:04;;;;;;;9.67;8.70;;;9.80;99.20;;;;;;4988814;28;20253;-77
2021/04/15 10:34:07;;;;;;;9.17;8.37;;;9.90;98.60;;;;;;5034088;28;20242;-77
2021/04/15 10:37:04;;;;;;;9.90;9.10;;;9.90;99.00;;;;;;5017826;28;20273;-77
2021/04/15 10:40:03;;;;;;;9.37;8.57;;;10.30;98.90;;;;;;5038879;28;20562;-77
2021/04/15 10:43:18;;;;;;;8.77;8.07;;;10.60;98.10;;;;;;5033574;28;20215;-77
2021/04/15 10:46:21;;;;;;;10.20;7.90;;;11.10;98.30;;;;;;5034067;28;20282;-76
2021/04/15 10:49:00;;;;;;;8.97;8.17;;;11.10;96.50;;;;;;5034008;28;20209;-76
2021/04/15 10:51:34;;;;;;;8.63;7.93;;;10.90;96.60;;;;;;5032647;28;20192;-77
2021/04/15 10:54:06;;;;;;;8.40;7.60;;;10.60;97.00;;;;;;5018268;28;20211;-76
2021/04/15 10:56:45;;;;;;;9.20;8.33;;;10.30;95.70;;;;;;5041374;28;20199;-78
2021/04/15 10:59:29;;;;;;;8.40;7.57;;;10.20;94.80;;;;;;5039543;28;20202;-76
2021/04/15 11:02:19;;;;;;;8.37;7.60;;;9.60;95.90;;;;;;5031749;28;20199;-77
2021/04/15 11:04:48;;;;;;;8.00;7.40;;;9.60;96.80;;;;;;5034677;28;20196;-77
2021/04/15 11:07:19;;;;;;;8.67;7.97;;;9.60;96.20;;;;;;5039215;28;20583;-75
2021/04/15 11:09:48;;;;;;;8.17;7.67;;;9.60;96.00;;;;;;5031986;28;20287;-77
2021/04/15 11:12:22;;;;;;;8.97;8.20;;;9.70;97.30;;;;;;5045681;28;20196;-77
2021/04/15 11:15:10;;;;;;;8.03;7.33;;;9.70;96.60;;;;;;5034528;28;20219;-77
2021/04/15 11:17:41;;;;;;;8.20;7.57;;;9.80;98.00;;;;;;5040605;28;20313;-76
2021/04/15 11:20:28;;;;;;;8.27;7.57;;;9.80;95.70;;;;;;5034571;28;20257;-77
2021/04/15 11:23:07;;;;;;;8.57;7.77;;;9.80;96.70;;;;;;5031205;28;20218;-76
2021/04/15 11:25:39;;;;;;;8.40;7.80;;;10.00;96.60;;;;;;5029408;28;20210;-76
2021/04/15 11:28:28;;;;;;;8.80;8.00;;;9.80;96.60;;;;;;5043563;28;20246;-76
2021/04/15 11:30:56;;;;;;;8.63;7.87;;;9.30;96.40;;;;;;5039042;28;20281;-76
2021/04/15 11:33:33;;;;;;;8.17;7.47;;;9.20;96.60;;;;;;5035558;28;20219;-76
2021/04/15 11:36:06;;;;;;;8.43;7.60;;;9.20;98.50;;;;;;5023763;28;20199;-78
2021/04/15 11:38:33;;;;;;;8.30;7.60;;;9.10;96.90;;;;;;5031113;28;20180;-77
2021/04/15 11:40:59;;;;;;;8.00;7.40;;;9.00;97.70;;;;;;5036465;28;20266;-76
2021/04/15 11:43:31;;;;;;;8.47;7.67;;;8.90;98.90;;;;;;5036458;28;20220;-76
2021/04/15 11:46:13;;;;;;;8.20;7.60;;;8.80;99.20;;;;;;5043197;28;20686;-76
2021/04/15 11:48:40;;;;;;;8.37;7.70;;;8.60;98.50;;;;;;5040694;28;20219;-76
2021/04/15 11:51:15;;;;;;;7.13;6.63;;;8.50;97.70;;;;;;5036736;28;20196;-77
2021/04/15 11:53:46;;;;;;;7.50;7.00;;;8.70;97.40;;;;;;5038375;28;20227;-76
2021/04/15 11:56:16;;;;;;;7.33;6.83;;;9.00;97.50;;;;;;5038744;28;20191;-76
2021/04/15 11:58:42;;;;;;;7.80;7.30;;;9.40;97.60;;;;;;5029049;28;20200;-76
2021/04/15 12:01:09;;;;;;;7.27;6.77;;;9.40;95.50;;;;;;5045378;28;20207;-76
2021/04/15 12:03:35;;;;;;;8.00;7.40;;;9.60;96.30;;;;;;5033192;28;20228;-77
2021/04/15 12:06:10;;;;;;;7.60;7.00;;;10.00;95.60;;;;;;5040987;28;20653;-76
2021/04/15 12:08:39;;;;;;;7.77;7.17;;;10.30;96.60;;;;;;5039734;28;20559;-76
2021/04/15 12:11:09;;;;;;;7.17;6.57;;;10.60;94.90;;;;;;5035695;28;20609;-75
2021/04/15 12:13:39;;;;;;;6.83;6.13;;;10.70;94.80;;;;;;5034080;28;20257;-76
2021/04/15 12:16:11;;;;;;;5.30;4.90;;;10.90;93.70;;;;;;5040141;28;20277;-77
2021/04/15 12:18:42;;;;;;;6.10;5.50;;;10.60;93.90;;;;;;5041899;28;20210;-76
2021/04/15 12:21:17;;;;;;;8.73;7.93;;;10.40;95.80;;;;;;5035595;28;20199;-76
2021/04/15 12:23:49;;;;;;;8.60;7.90;;;10.20;96.80;;;;;;5034818;28;20220;-77
2021/04/15 12:26:23;;;;;;;7.63;6.00;;;10.10;97.80;;;;;;5038625;28;20196;-77
2021/04/15 12:29:00;;;;;;;5.90;5.30;;;10.20;97.80;;;;;;5042772;28;20214;-77
2021/04/15 12:31:32;;;;;;;6.80;5.57;;;10.00;98.00;;;;;;5037449;28;20214;-79
2021/04/15 12:34:27;;;;;;;6.73;5.40;;;10.00;97.70;;;;;;5066288;23;20230;-77
2021/04/15 12:37:09;;;;;;;6.43;5.93;;;10.00;98.10;;;;;;5047333;28;20210;-79
2021/04/15 12:39:46;;;;;;;6.17;5.57;;;10.00;97.80;;;;;;5045543;28;20222;-79
2021/04/15 12:42:14;;;;;;;6.20;5.60;;;10.30;97.50;;;;;;5046844;28;20195;-79
2021/04/15 12:44:41;;;;;;;5.40;5.00;;;10.30;96.80;;;;;;5046089;28;20663;-79
2021/04/15 12:47:09;;;;;;;6.00;5.50;;;10.60;97.30;;;;;;5038194;28;20564;-79
2021/04/15 12:49:36;;;;;;;6.50;5.90;;;10.90;96.40;;;;;;5036134;28;20689;-80
2021/04/15 12:52:07;;;;;;;6.20;5.60;;;11.10;96.80;;;;;;5035968;28;20553;-78
2021/04/15 12:54:37;;;;;;;6.20;5.70;;;11.20;97.30;;;;;;5044009;28;20766;-79
2021/04/15 12:57:06;;;;;;;6.30;5.70;;;10.30;97.10;;;;;;5045820;28;20685;-78
2021/04/15 12:59:35;;;;;;;5.50;5.00;;;10.10;97.20;;;;;;5039131;28;20214;-79
2021/04/15 13:02:02;;;;;;;6.33;5.00;;;9.60;98.20;;;;;;5033064;28;20659;-79
2021/04/15 13:04:43;;;;;;;6.73;5.30;;;9.10;98.30;;;;;;5046893;28;20222;-79
2021/04/15 13:07:27;;;;;;;6.40;5.80;;;9.10;99.50;;;;;;5033259;28;20214;-77
2021/04/15 13:10:19;;;;;;;6.13;5.63;;;9.30;99.70;;;;;;5048127;28;20191;-79
2021/04/15 13:12:46;;;;;;;6.50;5.90;;;9.60;98.70;;;;;;5045425;28;20245;-78
2021/04/15 13:15:38;;;;;;;6.40;5.90;;;9.60;98.90;;;;;;5038441;28;20196;-79
2021/04/15 13:18:06;;;;;;;6.20;5.70;;;9.50;97.90;;;;;;5038498;28;20196;-79
2021/04/15 13:20:42;;;;;;;6.27;5.77;;;9.40;97.60;;;;;;5038029;28;20199;-79
2021/04/15 13:23:32;;;;;;;6.67;5.97;;;9.20;97.90;;;;;;5040874;28;20269;-78
2021/04/15 13:26:41;;;;;;;6.80;6.10;;;9.10;98.80;;;;;;5041627;28;20220;-80